Time;durP1;ratioP1;P1;durP2;ratioP2;P2;SDS_P1;SDS_P2;PMS_P1;PMS_P2;Temp;Humidity;BMP_temperature;BMP_pressure;BME280_temperature;BME280_humidity;BME280_pressure;Samples;Min_cycle;Max_cycle;Signal;HPM_P1;HPM_P2
2023/08/18 00:04:13;;;;;;;37.47;25.38;;;;;19.30;101146.00;;;;10241640;28;20542;-77
2023/08/18 00:09:14;;;;;;;40.35;26.25;;;;;19.30;101158.00;;;;10258875;28;20985;-78
2023/08/18 00:14:16;;;;;;;37.42;26.50;;;;;19.20;101152.00;;;;10259219;28;20277;-78
2023/08/18 00:19:17;;;;;;;42.88;28.23;;;;;19.20;101148.00;;;;10240648;28;20247;-76
2023/08/18 00:24:19;;;;;;;34.13;26.80;;;;;19.20;101138.00;;;;10239515;28;20223;-77
2023/08/18 00:29:20;;;;;;;37.63;28.23;;;;;19.20;101131.00;;;;10255770;28;20820;-76
2023/08/18 00:34:22;;;;;;;41.42;27.80;;;;;19.20;101131.00;;;;10239091;28;21319;-76
2023/08/18 00:39:23;;;;;;;37.95;28.48;;;;;19.20;101135.00;;;;10260302;28;21255;-77
2023/08/18 00:44:25;;;;;;;36.60;27.10;;;;;19.10;101127.00;;;;10256544;28;20215;-76
2023/08/18 00:49:27;;;;;;;41.40;27.75;;;;;19.10;101126.00;;;;10256471;28;20371;-77
2023/08/18 00:54:28;;;;;;;36.03;27.05;;;;;19.10;101124.00;;;;10258176;28;20238;-77
2023/08/18 00:59:30;;;;;;;45.58;28.20;;;;;19.10;101135.00;;;;10255683;28;20678;-77
2023/08/18 01:04:31;;;;;;;38.28;27.05;;;;;19.10;101124.00;;;;10257462;28;20750;-76
2023/08/18 01:09:33;;;;;;;37.80;27.55;;;;;19.10;101119.00;;;;10228513;28;20265;-77
2023/08/18 01:15:15;;;;;;;39.08;27.17;;;;;19.10;101117.00;;;;10263499;28;20268;-77
2023/08/18 01:20:18;;;;;;;37.28;27.70;;;;;19.10;101113.00;;;;10222420;28;20227;-74
2023/08/18 01:25:19;;;;;;;40.13;28.33;;;;;19.10;101113.00;;;;10257737;28;20223;-76
2023/08/18 01:30:25;;;;;;;37.92;28.88;;;;;19.10;101103.00;;;;10262529;28;20290;-76
2023/08/18 01:35:29;;;;;;;41.88;29.95;;;;;19.00;101107.00;;;;10228174;28;20546;-76
2023/08/18 01:40:31;;;;;;;38.13;29.13;;;;;19.00;101102.00;;;;10245044;28;20223;-78
2023/08/18 01:45:34;;;;;;;43.03;30.10;;;;;19.00;101103.00;;;;10247429;28;21229;-75
2023/08/18 01:50:36;;;;;;;42.42;30.60;;;;;19.00;101090.00;;;;10247976;28;20235;-75
2023/08/18 01:55:37;;;;;;;43.47;32.08;;;;;19.00;101088.00;;;;10241349;28;20648;-77
2023/08/18 02:00:38;;;;;;;39.40;30.30;;;;;19.00;101087.00;;;;10243585;28;20208;-77
2023/08/18 02:05:40;;;;;;;40.40;31.38;;;;;19.00;101080.00;;;;10260693;28;20667;-77
2023/08/18 02:10:41;;;;;;;49.05;31.65;;;;;19.00;101080.00;;;;10261875;28;20207;-75
2023/08/18 02:15:46;;;;;;;45.22;32.42;;;;;19.00;101077.00;;;;10241923;28;21256;-75
2023/08/18 02:21:00;;;;;;;43.95;33.08;;;;;19.00;101093.00;;;;10224023;28;21765;-77
2023/08/18 02:26:04;;;;;;;43.17;31.60;;;;;19.00;101084.00;;;;10256947;28;22510;-75
2023/08/18 02:31:07;;;;;;;46.70;34.35;;;;;19.00;101084.00;;;;10258084;28;20242;-76
2023/08/18 02:36:09;;;;;;;49.67;35.45;;;;;19.00;101081.00;;;;10257736;28;20219;-76
2023/08/18 02:41:14;;;;;;;56.45;37.60;;;;;19.00;101079.00;;;;10259383;28;20203;-76
2023/08/18 02:46:17;;;;;;;54.58;37.63;;;;;19.00;101085.00;;;;10240244;28;20996;-76
2023/08/18 02:51:18;;;;;;;58.40;39.92;;;;;19.00;101075.00;;;;10258513;28;20212;-76
2023/08/18 02:56:20;;;;;;;62.30;40.03;;;;;19.00;101068.00;;;;10241633;28;20214;-77
2023/08/18 03:01:21;;;;;;;66.07;42.47;;;;;18.90;101064.00;;;;10258262;28;20231;-77
2023/08/18 03:06:23;;;;;;;64.18;40.65;;;;;18.90;101065.00;;;;10253474;28;20523;-77
2023/08/18 03:11:24;;;;;;;69.95;43.40;;;;;18.90;101059.00;;;;10255629;28;20821;-76
2023/08/18 03:16:26;;;;;;;68.00;42.50;;;;;18.90;101065.00;;;;10238035;28;20452;-77
2023/08/18 03:21:28;;;;;;;69.97;42.55;;;;;19.00;101067.00;;;;10253743;28;20203;-77
2023/08/18 03:26:29;;;;;;;75.38;46.50;;;;;18.90;101063.00;;;;10206603;28;20215;-75
2023/08/18 03:31:30;;;;;;;75.20;45.65;;;;;18.90;101063.00;;;;10222194;28;20206;-76
2023/08/18 03:36:32;;;;;;;83.75;48.88;;;;;18.90;101057.00;;;;10237737;28;20281;-77
2023/08/18 03:41:33;;;;;;;85.07;48.55;;;;;18.90;101056.00;;;;10259854;28;20301;-76
2023/08/18 03:46:35;;;;;;;86.63;49.80;;;;;18.90;101039.00;;;;10235796;28;20219;-76
2023/08/18 03:51:37;;;;;;;84.35;48.35;;;;;18.90;101030.00;;;;10237932;28;21391;-76
2023/08/18 03:56:38;;;;;;;92.75;51.53;;;;;18.80;101042.00;;;;10238908;28;20222;-77
2023/08/18 04:01:40;;;;;;;93.53;54.42;;;;;18.80;101038.00;;;;10237676;28;20855;-76
2023/08/18 04:06:41;;;;;;;94.13;51.75;;;;;18.70;101042.00;;;;10257381;28;20500;-77
2023/08/18 04:11:44;;;;;;;96.88;53.75;;;;;18.70;101045.00;;;;10244413;28;20216;-77
2023/08/18 04:16:45;;;;;;;99.32;55.10;;;;;18.70;101047.00;;;;10240919;28;20265;-78
2023/08/18 04:21:47;;;;;;;104.70;55.17;;;;;18.70;101053.00;;;;10255001;28;20207;-77
2023/08/18 04:26:58;;;;;;;83.07;47.70;;;;;18.70;101059.00;;;;10203289;28;20207;-75
2023/08/18 04:32:00;;;;;;;89.25;49.75;;;;;18.60;101047.00;;;;10240764;28;20697;-77
2023/08/18 04:37:03;;;;;;;99.72;50.20;;;;;18.60;101055.00;;;;10227984;28;20242;-76
2023/08/18 04:42:05;;;;;;;93.88;49.80;;;;;18.60;101059.00;;;;10231064;28;20769;-77
2023/08/18 04:47:09;;;;;;;116.53;57.33;;;;;18.60;101047.00;;;;10243523;28;20219;-76
2023/08/18 04:52:11;;;;;;;117.55;57.42;;;;;18.60;101043.00;;;;10248856;28;20479;-75
2023/08/18 04:57:12;;;;;;;116.75;57.63;;;;;18.60;101050.00;;;;10225742;28;20207;-75
2023/08/18 05:02:13;;;;;;;118.18;59.17;;;;;18.60;101060.00;;;;10263827;28;20219;-76
2023/08/18 05:07:15;;;;;;;111.40;57.25;;;;;18.60;101046.00;;;;10243087;28;20215;-77
2023/08/18 05:12:17;;;;;;;112.43;57.75;;;;;18.60;101053.00;;;;10261006;28;20695;-76
2023/08/18 05:17:18;;;;;;;115.72;57.35;;;;;18.50;101052.00;;;;10261403;28;20216;-77
2023/08/18 05:22:21;;;;;;;111.25;57.63;;;;;18.50;101048.00;;;;10243145;28;20588;-77
2023/08/18 05:27:22;;;;;;;118.03;56.17;;;;;18.40;101044.00;;;;10226307;28;20910;-77
2023/08/18 05:32:24;;;;;;;118.88;57.10;;;;;18.40;101039.00;;;;10260202;28;20322;-78
2023/08/18 05:37:26;;;;;;;120.97;58.83;;;;;18.50;101039.00;;;;10232574;28;20207;-78
2023/08/18 05:42:28;;;;;;;120.75;57.25;;;;;18.50;101035.00;;;;10244579;28;20487;-76
2023/08/18 05:47:29;;;;;;;118.07;56.25;;;;;18.50;101033.00;;;;10228164;28;20749;-76
2023/08/18 05:52:31;;;;;;;111.32;54.13;;;;;18.50;101028.00;;;;10259230;28;20210;-78
2023/08/18 05:57:33;;;;;;;100.03;50.38;;;;;18.50;101035.00;;;;10261197;28;20346;-77
2023/08/18 06:02:34;;;;;;;100.57;48.72;;;;;18.50;101026.00;;;;10244988;28;20357;-78
2023/08/18 06:07:36;;;;;;;98.95;49.33;;;;;18.50;101034.00;;;;10268127;28;20226;-76
2023/08/18 06:12:38;;;;;;;100.32;51.47;;;;;18.50;101026.00;;;;10248025;28;21762;-77
2023/08/18 06:17:40;;;;;;;103.00;52.47;;;;;18.50;101021.00;;;;10262196;28;20540;-77
2023/08/18 06:22:42;;;;;;;111.82;53.20;;;;;18.50;101036.00;;;;10222786;28;20697;-78
2023/08/18 06:27:43;;;;;;;111.57;52.55;;;;;18.60;101022.00;;;;10242100;28;20294;-77
2023/08/18 06:32:45;;;;;;;93.28;49.45;;;;;18.60;101029.00;;;;10244499;28;20207;-76
2023/08/18 06:37:47;;;;;;;110.32;51.92;;;;;18.60;101030.00;;;;10246083;28;20226;-78
2023/08/18 06:42:49;;;;;;;107.43;52.88;;;;;18.60;101029.00;;;;10266569;28;20219;-77
2023/08/18 06:47:50;;;;;;;98.47;49.95;;;;;18.60;101040.00;;;;10259900;28;20215;-78
2023/08/18 06:52:51;;;;;;;100.43;49.78;;;;;18.60;101043.00;;;;10261392;28;20214;-78
2023/08/18 06:57:53;;;;;;;95.32;47.35;;;;;18.60;101041.00;;;;10243521;28;20270;-77
2023/08/18 07:02:54;;;;;;;92.00;46.47;;;;;18.60;101057.00;;;;10241000;28;20226;-77
2023/08/18 07:07:56;;;;;;;93.47;48.20;;;;;18.60;101054.00;;;;10261322;28;20215;-76
2023/08/18 07:12:58;;;;;;;84.78;44.58;;;;;18.70;101050.00;;;;10226871;28;20207;-78
2023/08/18 07:17:59;;;;;;;83.28;43.28;;;;;18.80;101038.00;;;;10257722;28;20215;-77
2023/08/18 07:23:00;;;;;;;84.90;44.05;;;;;18.90;101046.00;;;;10259942;28;20633;-76
2023/08/18 07:28:03;;;;;;;81.50;44.05;;;;;18.90;101049.00;;;;10258081;28;20258;-76
2023/08/18 07:33:04;;;;;;;80.70;43.10;;;;;19.10;101063.00;;;;10242423;28;20211;-78
2023/08/18 07:38:06;;;;;;;83.45;41.72;;;;;19.10;101055.00;;;;10239192;28;20574;-77
2023/08/18 07:43:07;;;;;;;94.85;46.17;;;;;19.30;101062.00;;;;10257167;28;20834;-77
2023/08/18 07:48:08;;;;;;;88.70;46.40;;;;;19.40;101055.00;;;;10260249;28;20231;-76
2023/08/18 07:53:10;;;;;;;89.80;45.35;;;;;19.40;101063.00;;;;10260120;28;20277;-77
2023/08/18 07:58:11;;;;;;;91.53;47.72;;;;;19.50;101058.00;;;;10256137;28;20269;-76
2023/08/18 08:03:13;;;;;;;98.00;49.05;;;;;19.50;101069.00;;;;10240056;28;20247;-77
2023/08/18 08:08:14;;;;;;;100.03;48.15;;;;;19.60;101064.00;;;;10259665;28;20239;-78
2023/08/18 08:13:16;;;;;;;92.88;45.70;;;;;19.80;101064.00;;;;10261109;28;20700;-76
2023/08/18 08:18:18;;;;;;;89.20;45.65;;;;;20.00;101073.00;;;;10265250;28;20685;-78
2023/08/18 08:23:19;;;;;;;78.22;43.00;;;;;20.30;101062.00;;;;10259594;28;20219;-78
2023/08/18 08:28:21;;;;;;;81.25;43.78;;;;;20.30;101062.00;;;;10231246;28;20696;-77
2023/08/18 08:33:24;;;;;;;87.00;46.72;;;;;20.40;101060.00;;;;10247612;28;20207;-76
2023/08/18 08:38:26;;;;;;;85.00;44.95;;;;;20.60;101057.00;;;;10250565;28;20215;-77
2023/08/18 08:43:27;;;;;;;86.75;45.22;;;;;20.80;101049.00;;;;10269290;28;20223;-78
2023/08/18 08:48:36;;;;;;;88.20;47.47;;;;;20.90;101061.00;;;;10246620;28;20207;-78
2023/08/18 08:53:48;;;;;;;88.25;46.15;;;;;21.00;101065.00;;;;10261861;28;20517;-76
2023/08/18 08:58:50;;;;;;;90.05;46.90;;;;;21.10;101068.00;;;;10249948;28;20988;-77
2023/08/18 09:03:52;;;;;;;90.72;48.10;;;;;21.20;101070.00;;;;10245462;28;20814;-78
2023/08/18 09:08:56;;;;;;;80.18;44.90;;;;;21.40;101071.00;;;;10263169;28;20224;-76
2023/08/18 09:14:03;;;;;;;96.60;47.38;;;;;21.50;101076.00;;;;10232602;28;20732;-76
2023/08/18 09:19:05;;;;;;;87.03;45.83;;;;;21.60;101076.00;;;;10263402;28;20890;-77
2023/08/18 09:24:07;;;;;;;68.40;42.28;;;;;21.60;101077.00;;;;10229809;28;20251;-76
2023/08/18 09:29:08;;;;;;;72.55;42.75;;;;;21.90;101075.00;;;;10245214;28;20235;-77
2023/08/18 09:34:18;;;;;;;65.43;39.03;;;;;22.40;101064.00;;;;10260888;28;20614;-76
2023/08/18 09:39:20;;;;;;;62.60;38.38;;;;;22.70;101063.00;;;;10263912;28;20202;-77
2023/08/18 09:44:22;;;;;;;66.07;42.35;;;;;22.90;101060.00;;;;10263431;28;20219;-78
2023/08/18 09:49:25;;;;;;;58.05;36.05;;;;;23.10;101060.00;;;;10259939;28;20227;-78
2023/08/18 09:54:30;;;;;;;60.10;38.15;;;;;23.50;101055.00;;;;10247684;28;20199;-77
2023/08/18 09:59:37;;;;;;;60.20;38.33;;;;;23.60;101056.00;;;;10229808;28;20209;-76
2023/08/18 10:04:41;;;;;;;59.00;37.63;;;;;23.70;101051.00;;;;10244772;28;21587;-78
2023/08/18 10:09:45;;;;;;;56.10;36.92;;;;;24.20;101039.00;;;;10262293;28;20817;-78
2023/08/18 10:14:49;;;;;;;60.17;37.53;;;;;24.40;101035.00;;;;10260227;28;20211;-78
2023/08/18 10:19:55;;;;;;;52.17;36.40;;;;;24.70;101034.00;;;;10242893;28;20297;-77
2023/08/18 10:24:57;;;;;;;59.42;38.28;;;;;24.90;101022.00;;;;10240393;28;20222;-77
2023/08/18 10:30:25;;;;;;;55.65;37.28;;;;;25.10;101018.00;;;;10259054;28;20262;-76
2023/08/18 10:35:28;;;;;;;65.22;40.03;;;;;25.40;101017.00;;;;10228140;28;20203;-77
2023/08/18 10:40:37;;;;;;;71.63;44.55;;;;;26.00;101007.00;;;;10226900;28;20222;-76
2023/08/18 10:45:42;;;;;;;69.53;44.63;;;;;26.20;101007.00;;;;10242307;28;20227;-78
2023/08/18 10:50:45;;;;;;;66.82;42.70;;;;;26.30;101007.00;;;;10257288;28;20763;-78
2023/08/18 10:55:46;;;;;;;66.72;42.03;;;;;26.30;100995.00;;;;10255919;28;20301;-78
2023/08/18 11:00:49;;;;;;;66.80;41.63;;;;;26.60;100994.00;;;;10239710;28;20234;-77
2023/08/18 11:05:50;;;;;;;63.55;40.75;;;;;26.90;100996.00;;;;10238488;28;20238;-78
2023/08/18 11:10:52;;;;;;;63.03;40.95;;;;;27.40;100991.00;;;;10241501;28;20208;-78
2023/08/18 11:15:56;;;;;;;64.35;41.22;;;;;27.00;100982.00;;;;10258401;28;20277;-77
2023/08/18 11:20:57;;;;;;;68.85;42.13;;;;;27.40;100986.00;;;;10263998;28;20249;-76
2023/08/18 11:25:58;;;;;;;66.07;43.05;;;;;27.90;100972.00;;;;10264482;28;20219;-78
2023/08/18 11:31:05;;;;;;;67.45;43.92;;;;;27.80;100963.00;;;;10232398;28;21372;-77
2023/08/18 11:36:10;;;;;;;67.00;43.33;;;;;28.40;100970.00;;;;10248827;28;20512;-77
2023/08/18 11:41:12;;;;;;;62.65;42.22;;;;;28.60;100962.00;;;;10231607;28;20211;-76
2023/08/18 11:46:13;;;;;;;61.95;42.42;;;;;28.80;100960.00;;;;10264519;28;20301;-78
2023/08/18 11:51:17;;;;;;;60.90;41.20;;;;;28.90;100957.00;;;;10264436;28;20235;-78
2023/08/18 11:56:19;;;;;;;63.80;42.33;;;;;28.60;100954.00;;;;10254348;28;20692;-79
2023/08/18 12:01:21;;;;;;;65.30;44.05;;;;;28.90;100937.00;;;;10252930;28;20208;-79
2023/08/18 12:06:26;;;;;;;58.08;40.05;;;;;29.40;100930.00;;;;10236246;28;20255;-79
2023/08/18 12:11:27;;;;;;;57.85;39.75;;;;;30.00;100941.00;;;;10252235;28;20723;-77
2023/08/18 12:16:29;;;;;;;55.85;38.78;;;;;30.60;100937.00;;;;10254423;28;20412;-76
2023/08/18 12:21:31;;;;;;;54.13;38.95;;;;;31.60;100937.00;;;;10264836;28;20219;-79
2023/08/18 12:26:33;;;;;;;53.83;37.53;;;;;32.00;100943.00;;;;10234833;28;20227;-77
2023/08/18 12:31:36;;;;;;;48.40;34.30;;;;;32.90;100937.00;;;;10237141;28;20705;-77
2023/08/18 12:36:37;;;;;;;43.67;33.08;;;;;32.90;100929.00;;;;10263066;28;20227;-77
2023/08/18 12:41:38;;;;;;;43.75;32.38;;;;;33.10;100925.00;;;;10257026;28;20294;-78
2023/08/18 12:46:40;;;;;;;45.28;33.42;;;;;32.80;100934.00;;;;10254761;28;20552;-79
2023/08/18 12:51:41;;;;;;;48.17;33.70;;;;;32.40;100935.00;;;;10258100;28;20738;-79
2023/08/18 12:56:43;;;;;;;42.50;32.35;;;;;32.20;100942.00;;;;10255742;28;20887;-79
2023/08/18 13:01:44;;;;;;;46.00;34.03;;;;;32.30;100925.00;;;;10258383;28;20419;-79
2023/08/18 13:06:45;;;;;;;39.67;29.63;;;;;31.30;100923.00;;;;10247753;28;20647;-77
2023/08/18 13:11:46;;;;;;;45.63;33.65;;;;;31.70;100923.00;;;;10269677;28;22446;-77
2023/08/18 13:16:49;;;;;;;39.03;30.38;;;;;31.80;100921.00;;;;10268494;28;20208;-79
2023/08/18 13:21:50;;;;;;;41.67;32.20;;;;;32.10;100929.00;;;;10259199;28;20297;-78
2023/08/18 13:26:51;;;;;;;38.55;28.63;;;;;32.10;100917.00;;;;10268846;28;20227;-80
2023/08/18 13:31:53;;;;;;;37.58;27.30;;;;;32.20;100915.00;;;;10273496;28;21226;-77
2023/08/18 13:36:55;;;;;;;37.50;29.27;;;;;32.20;100913.00;;;;10259436;28;21684;-80
2023/08/18 13:41:56;;;;;;;39.83;29.98;;;;;32.10;100904.00;;;;10239727;28;21644;-80
2023/08/18 13:46:58;;;;;;;44.53;30.70;;;;;32.10;100893.00;;;;10253120;28;20227;-77
2023/08/18 13:51:59;;;;;;;39.05;28.27;;;;;32.10;100883.00;;;;10269564;28;20226;-77
2023/08/18 13:57:00;;;;;;;40.13;30.90;;;;;31.90;100891.00;;;;10267919;28;20203;-77
2023/08/18 14:02:02;;;;;;;38.63;29.45;;;;;31.60;100880.00;;;;10240917;28;20246;-78
2023/08/18 14:07:03;;;;;;;41.28;29.75;;;;;31.60;100885.00;;;;10245089;28;20259;-79
2023/08/18 14:12:05;;;;;;;40.28;29.38;;;;;31.50;100876.00;;;;10263320;28;20215;-79
2023/08/18 14:17:08;;;;;;;36.60;27.80;;;;;31.50;100868.00;;;;10263224;28;20262;-76
2023/08/18 14:22:10;;;;;;;32.45;25.80;;;;;31.50;100873.00;;;;10245728;28;20295;-80
2023/08/18 14:27:11;;;;;;;35.50;27.02;;;;;30.10;100859.00;;;;10269871;28;20617;-77
2023/08/18 14:32:12;;;;;;;36.97;27.73;;;;;29.00;100863.00;;;;10265616;28;20830;-79
2023/08/18 14:37:13;;;;;;;41.35;29.33;;;;;30.10;100854.00;;;;10268606;28;21674;-80
2023/08/18 14:42:15;;;;;;;41.08;29.25;;;;;33.10;100853.00;;;;10254112;28;20675;-78
2023/08/18 14:47:16;;;;;;;39.22;27.88;;;;;33.30;100843.00;;;;10263294;28;20228;-79
2023/08/18 14:52:18;;;;;;;40.22;27.58;;;;;35.90;100824.00;;;;10239796;28;20293;-77
2023/08/18 14:57:19;;;;;;;37.47;27.17;;;;;36.20;100832.00;;;;10266362;28;20301;-76
2023/08/18 15:02:20;;;;;;;33.55;26.15;;;;;32.20;100834.00;;;;10257381;28;21655;-77
2023/08/18 15:07:22;;;;;;;34.78;26.52;;;;;30.40;100829.00;;;;10257974;28;20219;-79
2023/08/18 15:12:24;;;;;;;36.47;27.52;;;;;29.10;100828.00;;;;10260385;28;20243;-78
2023/08/18 15:17:25;;;;;;;36.05;27.13;;;;;29.00;100825.00;;;;10262498;28;20211;-79
2023/08/18 15:22:27;;;;;;;34.45;25.17;;;;;29.10;100816.00;;;;10261713;28;20261;-79
2023/08/18 15:27:29;;;;;;;36.45;26.85;;;;;29.10;100815.00;;;;10223483;28;20203;-76
2023/08/18 15:32:30;;;;;;;34.20;25.77;;;;;29.20;100816.00;;;;10259525;28;20204;-77
2023/08/18 15:37:32;;;;;;;38.75;24.83;;;;;29.30;100804.00;;;;10239205;28;20893;-76
2023/08/18 15:42:34;;;;;;;35.03;24.33;;;;;29.10;100802.00;;;;10257398;28;20286;-76
2023/08/18 15:47:35;;;;;;;33.70;24.27;;;;;28.80;100797.00;;;;10256195;28;20276;-77
2023/08/18 15:52:36;;;;;;;34.25;24.60;;;;;28.40;100793.00;;;;10246588;28;20334;-76
2023/08/18 15:57:38;;;;;;;31.27;23.13;;;;;28.10;100804.00;;;;10246693;28;20203;-77
2023/08/18 16:02:39;;;;;;;34.58;25.20;;;;;28.00;100794.00;;;;10260384;28;20246;-79
2023/08/18 16:07:41;;;;;;;32.70;24.17;;;;;28.40;100792.00;;;;10254307;28;20415;-78
2023/08/18 16:12:42;;;;;;;30.33;23.65;;;;;28.60;100790.00;;;;10259635;28;20792;-76
2023/08/18 16:17:43;;;;;;;29.23;22.27;;;;;28.80;100801.00;;;;10238385;28;21144;-77
2023/08/18 16:22:44;;;;;;;33.78;23.92;;;;;28.80;100792.00;;;;10260985;28;21260;-76
2023/08/18 16:27:49;;;;;;;30.40;22.55;;;;;28.50;100781.00;;;;10239949;28;21141;-77
2023/08/18 16:32:51;;;;;;;33.15;21.92;;;;;28.10;100765.00;;;;10260617;28;20207;-77
2023/08/18 16:37:52;;;;;;;30.00;21.95;;;;;27.70;100751.00;;;;10248302;28;20350;-77
2023/08/18 16:42:56;;;;;;;32.92;23.00;;;;;27.60;100765.00;;;;10261412;28;20232;-77
2023/08/18 16:47:58;;;;;;;28.95;21.63;;;;;27.50;100773.00;;;;10248596;28;20440;-76
2023/08/18 16:52:59;;;;;;;32.15;23.90;;;;;27.80;100760.00;;;;10264210;28;20749;-78
2023/08/18 16:58:00;;;;;;;30.02;22.33;;;;;28.00;100758.00;;;;10262583;28;20834;-79
2023/08/18 17:03:02;;;;;;;32.45;22.85;;;;;28.20;100762.00;;;;10261909;28;20215;-76
2023/08/18 17:08:05;;;;;;;30.08;23.15;;;;;28.30;100752.00;;;;10232132;28;20211;-77
2023/08/18 17:13:09;;;;;;;30.52;24.15;;;;;28.10;100742.00;;;;10263531;28;20212;-77
2023/08/18 17:18:10;;;;;;;28.83;24.08;;;;;27.90;100744.00;;;;10247835;28;21053;-79
2023/08/18 17:23:12;;;;;;;29.55;24.70;;;;;27.60;100748.00;;;;10259187;28;20239;-77
2023/08/18 17:28:13;;;;;;;30.10;23.60;;;;;27.30;100732.00;;;;10248130;28;20207;-77
2023/08/18 17:33:15;;;;;;;29.88;23.08;;;;;27.10;100733.00;;;;10244324;28;20203;-78
2023/08/18 17:38:16;;;;;;;29.33;22.92;;;;;26.90;100739.00;;;;10262789;28;20218;-77
2023/08/18 17:43:17;;;;;;;29.90;22.88;;;;;26.70;100746.00;;;;10265204;28;20214;-78
2023/08/18 17:48:19;;;;;;;29.67;22.98;;;;;26.50;100737.00;;;;10252712;28;20281;-80
2023/08/18 17:53:20;;;;;;;27.08;23.85;;;;;26.40;100751.00;;;;10269949;28;20552;-77
2023/08/18 17:58:21;;;;;;;25.77;22.98;;;;;26.30;100752.00;;;;10243527;28;20950;-76
2023/08/18 18:03:23;;;;;;;32.47;25.27;;;;;26.30;100748.00;;;;10244343;28;20852;-79
2023/08/18 18:08:24;;;;;;;29.98;25.25;;;;;26.20;100743.00;;;;10262707;28;20203;-76
2023/08/18 18:13:26;;;;;;;35.95;27.27;;;;;26.10;100740.00;;;;10263941;28;20211;-76
2023/08/18 18:18:27;;;;;;;33.78;26.58;;;;;26.00;100737.00;;;;10246135;28;20313;-76
2023/08/18 18:23:28;;;;;;;31.80;27.02;;;;;25.80;100736.00;;;;10244016;28;20220;-77
2023/08/18 18:28:29;;;;;;;37.00;29.00;;;;;25.60;100736.00;;;;10258610;28;20878;-76
2023/08/18 18:33:31;;;;;;;36.35;29.00;;;;;25.40;100723.00;;;;10261704;28;20211;-76
2023/08/18 18:38:33;;;;;;;37.58;29.48;;;;;25.20;100734.00;;;;10247888;28;20359;-77
2023/08/18 18:43:34;;;;;;;36.58;29.48;;;;;25.00;100738.00;;;;10244300;28;20679;-77
2023/08/18 18:48:36;;;;;;;37.10;29.55;;;;;24.90;100735.00;;;;10244001;28;20242;-76
2023/08/18 18:53:37;;;;;;;36.17;29.13;;;;;24.70;100734.00;;;;10263770;28;20219;-76
2023/08/18 18:58:39;;;;;;;37.85;29.90;;;;;24.60;100730.00;;;;10243635;28;20211;-76
2023/08/18 19:03:40;;;;;;;39.35;30.20;;;;;24.50;100730.00;;;;10257351;28;21266;-76
2023/08/18 19:08:42;;;;;;;36.63;29.73;;;;;24.40;100736.00;;;;10259801;28;21687;-77
2023/08/18 19:13:43;;;;;;;35.38;28.67;;;;;24.30;100738.00;;;;10260289;28;20267;-76
2023/08/18 19:18:45;;;;;;;32.50;28.90;;;;;24.20;100743.00;;;;10254998;28;20235;-76
2023/08/18 19:23:46;;;;;;;32.47;28.20;;;;;24.10;100735.00;;;;10256501;28;21462;-76
2023/08/18 19:28:47;;;;;;;36.58;28.73;;;;;24.00;100738.00;;;;10223355;28;20265;-76
2023/08/18 19:33:49;;;;;;;39.95;30.70;;;;;23.90;100732.00;;;;10257440;28;20747;-77
2023/08/18 19:38:50;;;;;;;36.55;29.83;;;;;23.80;100741.00;;;;10259953;28;20241;-77
2023/08/18 19:43:51;;;;;;;37.05;30.20;;;;;23.70;100730.00;;;;10240348;28;20413;-78
2023/08/18 19:48:53;;;;;;;40.35;28.67;;;;;23.60;100727.00;;;;10259336;28;20257;-77
2023/08/18 19:53:54;;;;;;;34.13;28.88;;;;;23.50;100727.00;;;;10241508;28;21005;-78
2023/08/18 19:58:56;;;;;;;33.97;29.33;;;;;23.40;100722.00;;;;10261684;28;20313;-77
2023/08/18 20:03:57;;;;;;;32.38;28.85;;;;;23.40;100709.00;;;;10256267;28;20227;-78
2023/08/18 20:08:58;;;;;;;34.58;28.90;;;;;23.40;100715.00;;;;10258828;28;20207;-75
2023/08/18 20:14:00;;;;;;;33.33;29.55;;;;;23.40;100704.00;;;;10266319;28;20203;-76
2023/08/18 20:19:01;;;;;;;33.45;29.13;;;;;23.40;100704.00;;;;10247336;28;20218;-77
2023/08/18 20:24:04;;;;;;;34.22;29.27;;;;;23.30;100710.00;;;;10246755;28;20227;-77
2023/08/18 20:29:05;;;;;;;33.05;28.00;;;;;23.30;100701.00;;;;10247247;28;20290;-78
2023/08/18 20:34:06;;;;;;;36.67;29.60;;;;;23.20;100702.00;;;;10261059;28;20289;-77
2023/08/18 20:39:08;;;;;;;36.08;29.13;;;;;23.10;100714.00;;;;10265497;28;20207;-77
2023/08/18 20:44:09;;;;;;;35.42;30.40;;;;;23.00;100716.00;;;;10264874;28;20357;-77
2023/08/18 20:49:10;;;;;;;40.08;29.80;;;;;23.00;100705.00;;;;10263804;28;20258;-78
2023/08/18 20:54:11;;;;;;;34.08;28.52;;;;;23.00;100722.00;;;;10262473;28;20278;-78
2023/08/18 20:59:13;;;;;;;34.65;28.63;;;;;23.00;100711.00;;;;10261989;28;20204;-77
2023/08/18 21:04:14;;;;;;;38.88;29.73;;;;;22.90;100695.00;;;;10258547;28;20243;-78
2023/08/18 21:09:16;;;;;;;34.78;30.27;;;;;22.80;100692.00;;;;10261241;28;20901;-77
2023/08/18 21:14:17;;;;;;;38.40;31.60;;;;;22.70;100699.00;;;;10247217;28;20215;-77
2023/08/18 21:19:18;;;;;;;38.15;30.20;;;;;22.80;100685.00;;;;10262430;28;20211;-77
2023/08/18 21:24:19;;;;;;;34.08;29.38;;;;;23.00;100692.00;;;;10259990;28;20246;-77
2023/08/18 21:29:20;;;;;;;33.67;29.30;;;;;23.00;100691.00;;;;10247090;28;20203;-78
2023/08/18 21:34:22;;;;;;;33.08;29.40;;;;;23.00;100686.00;;;;10228324;28;21710;-78
2023/08/18 21:39:23;;;;;;;33.10;27.80;;;;;23.00;100688.00;;;;10259950;28;20560;-78
2023/08/18 21:44:25;;;;;;;32.45;26.30;;;;;23.20;100681.00;;;;10245408;28;20234;-78
2023/08/18 21:49:26;;;;;;;28.92;25.52;;;;;23.30;100681.00;;;;10246467;28;20930;-78
2023/08/18 21:54:27;;;;;;;30.67;25.58;;;;;23.30;100674.00;;;;10245544;28;20206;-78
2023/08/18 21:59:31;;;;;;;30.77;25.90;;;;;23.20;100679.00;;;;10243749;28;20262;-78
2023/08/18 22:04:36;;;;;;;27.50;24.70;;;;;23.10;100670.00;;;;10258869;28;20262;-78
2023/08/18 22:09:38;;;;;;;29.23;25.23;;;;;23.00;100668.00;;;;10258918;28;20211;-77
2023/08/18 22:14:39;;;;;;;26.20;23.45;;;;;22.90;100663.00;;;;10245900;28;20226;-78
2023/08/18 22:19:40;;;;;;;31.08;25.10;;;;;22.90;100662.00;;;;10260241;28;20207;-78
2023/08/18 22:24:43;;;;;;;28.25;24.38;;;;;22.80;100664.00;;;;10258996;28;20222;-77
2023/08/18 22:29:47;;;;;;;31.48;24.70;;;;;22.70;100656.00;;;;10261513;28;20553;-77
2023/08/18 22:34:48;;;;;;;27.42;24.50;;;;;22.70;100649.00;;;;10258486;28;20286;-78
2023/08/18 22:39:49;;;;;;;24.52;22.00;;;;;22.80;100652.00;;;;10260044;28;20298;-77
2023/08/18 22:44:51;;;;;;;26.88;23.92;;;;;22.90;100646.00;;;;10258467;28;20312;-77
2023/08/18 22:49:53;;;;;;;29.13;22.77;;;;;23.00;100650.00;;;;10259012;28;20200;-77
2023/08/18 22:54:55;;;;;;;25.05;22.38;;;;;23.00;100639.00;;;;10260845;28;20547;-77
2023/08/18 22:59:56;;;;;;;24.50;21.88;;;;;23.00;100645.00;;;;10258895;28;20708;-77
2023/08/18 23:04:58;;;;;;;26.70;22.63;;;;;23.00;100636.00;;;;10258250;28;20290;-77
2023/08/18 23:09:59;;;;;;;26.55;23.58;;;;;23.00;100640.00;;;;10260714;28;20298;-77
2023/08/18 23:15:00;;;;;;;24.13;21.58;;;;;23.00;100638.00;;;;10259222;28;20211;-77
2023/08/18 23:20:08;;;;;;;27.02;22.60;;;;;23.00;100631.00;;;;10237979;28;20452;-78
2023/08/18 23:25:09;;;;;;;28.05;23.38;;;;;23.00;100629.00;;;;10224605;28;20230;-77
2023/08/18 23:30:11;;;;;;;27.92;23.95;;;;;23.00;100627.00;;;;10226696;28;21786;-77
2023/08/18 23:35:12;;;;;;;27.10;24.05;;;;;23.00;100622.00;;;;10258057;28;20294;-78
2023/08/18 23:40:14;;;;;;;28.50;24.17;;;;;23.10;100621.00;;;;10255835;28;20207;-78
2023/08/18 23:45:16;;;;;;;24.92;22.42;;;;;23.00;100612.00;;;;10258578;28;20446;-78
2023/08/18 23:50:17;;;;;;;28.00;23.42;;;;;23.00;100618.00;;;;10257809;28;20293;-78
2023/08/18 23:55:18;;;;;;;26.40;22.70;;;;;23.00;100617.00;;;;10241788;28;20614;-77
